sensor_id;sensor_type;location;lat;lon;timestamp;P1;durP1;ratioP1;P2;durP2;ratioP2
51179;SDS011;37243;49.814;8.652;2022-10-31T00:01:10;2.45;;;2.35;;
51179;SDS011;37243;49.814;8.652;2022-10-31T00:03:40;2.42;;;2.22;;
51179;SDS011;37243;49.814;8.652;2022-10-31T00:06:08;2.50;;;2.30;;
51179;SDS011;37243;49.814;8.652;2022-10-31T00:08:37;2.70;;;2.50;;
51179;SDS011;37243;49.814;8.652;2022-10-31T00:11:10;2.40;;;2.30;;
51179;SDS011;37243;49.814;8.652;2022-10-31T00:13:39;3.50;;;2.30;;
51179;SDS011;37243;49.814;8.652;2022-10-31T00:16:12;2.58;;;2.42;;
51179;SDS011;37243;49.814;8.652;2022-10-31T00:18:41;2.17;;;2.08;;
51179;SDS011;37243;49.814;8.652;2022-10-31T00:21:10;2.40;;;2.28;;
51179;SDS011;37243;49.814;8.652;2022-10-31T00:23:38;3.38;;;2.25;;
51179;SDS011;37243;49.814;8.652;2022-10-31T00:26:06;2.42;;;2.22;;
51179;SDS011;37243;49.814;8.652;2022-10-31T00:28:37;2.33;;;2.13;;
51179;SDS011;37243;49.814;8.652;2022-10-31T00:31:06;2.70;;;2.42;;
51179;SDS011;37243;49.814;8.652;2022-10-31T00:33:36;2.35;;;2.15;;
51179;SDS011;37243;49.814;8.652;2022-10-31T00:36:06;3.47;;;2.10;;
51179;SDS011;37243;49.814;8.652;2022-10-31T00:38:35;3.05;;;2.50;;
51179;SDS011;37243;49.814;8.652;2022-10-31T00:41:04;2.40;;;2.20;;
51179;SDS011;37243;49.814;8.652;2022-10-31T00:43:34;2.38;;;2.13;;
51179;SDS011;37243;49.814;8.652;2022-10-31T00:46:03;2.53;;;2.30;;
51179;SDS011;37243;49.814;8.652;2022-10-31T00:48:31;2.28;;;2.17;;
51179;SDS011;37243;49.814;8.652;2022-10-31T00:51:00;3.42;;;2.45;;
51179;SDS011;37243;49.814;8.652;2022-10-31T00:53:28;2.30;;;2.20;;
51179;SDS011;37243;49.814;8.652;2022-10-31T00:55:56;3.33;;;2.17;;
51179;SDS011;37243;49.814;8.652;2022-10-31T00:58:25;2.40;;;2.17;;
51179;SDS011;37243;49.814;8.652;2022-10-31T01:00:55;2.20;;;2.10;;
51179;SDS011;37243;49.814;8.652;2022-10-31T01:03:24;2.20;;;2.10;;
51179;SDS011;37243;49.814;8.652;2022-10-31T01:05:56;2.40;;;2.20;;
51179;SDS011;37243;49.814;8.652;2022-10-31T01:08:26;2.10;;;2.00;;
51179;SDS011;37243;49.814;8.652;2022-10-31T01:10:58;2.72;;;2.08;;
51179;SDS011;37243;49.814;8.652;2022-10-31T01:13:28;2.33;;;2.13;;
51179;SDS011;37243;49.814;8.652;2022-10-31T01:15:59;2.42;;;2.30;;
51179;SDS011;37243;49.814;8.652;2022-10-31T01:18:28;2.60;;;2.40;;
51179;SDS011;37243;49.814;8.652;2022-10-31T01:20:57;2.10;;;2.00;;
51179;SDS011;37243;49.814;8.652;2022-10-31T01:23:27;2.10;;;1.95;;
51179;SDS011;37243;49.814;8.652;2022-10-31T01:25:59;2.60;;;2.40;;
51179;SDS011;37243;49.814;8.652;2022-10-31T01:28:31;2.33;;;2.20;;
51179;SDS011;37243;49.814;8.652;2022-10-31T01:31:03;2.85;;;2.38;;
51179;SDS011;37243;49.814;8.652;2022-10-31T01:33:33;2.20;;;2.03;;
51179;SDS011;37243;49.814;8.652;2022-10-31T01:36:10;2.30;;;2.10;;
51179;SDS011;37243;49.814;8.652;2022-10-31T01:38:39;2.13;;;1.90;;
51179;SDS011;37243;49.814;8.652;2022-10-31T01:41:08;2.20;;;2.10;;
51179;SDS011;37243;49.814;8.652;2022-10-31T01:43:45;2.50;;;2.30;;
51179;SDS011;37243;49.814;8.652;2022-10-31T01:46:19;3.75;;;2.28;;
51179;SDS011;37243;49.814;8.652;2022-10-31T01:48:50;2.20;;;2.10;;
51179;SDS011;37243;49.814;8.652;2022-10-31T01:51:20;2.58;;;2.38;;
51179;SDS011;37243;49.814;8.652;2022-10-31T01:53:54;2.83;;;2.63;;
51179;SDS011;37243;49.814;8.652;2022-10-31T01:56:25;2.97;;;2.53;;
51179;SDS011;37243;49.814;8.652;2022-10-31T01:58:55;2.40;;;2.30;;
51179;SDS011;37243;49.814;8.652;2022-10-31T02:01:27;2.38;;;2.17;;
51179;SDS011;37243;49.814;8.652;2022-10-31T02:03:56;2.22;;;2.13;;
51179;SDS011;37243;49.814;8.652;2022-10-31T02:06:27;2.20;;;2.10;;
51179;SDS011;37243;49.814;8.652;2022-10-31T02:09:01;2.30;;;2.10;;
51179;SDS011;37243;49.814;8.652;2022-10-31T02:11:31;2.17;;;2.05;;
51179;SDS011;37243;49.814;8.652;2022-10-31T02:14:02;2.42;;;2.22;;
51179;SDS011;37243;49.814;8.652;2022-10-31T02:16:34;2.50;;;2.30;;
51179;SDS011;37243;49.814;8.652;2022-10-31T02:19:02;2.28;;;2.08;;
51179;SDS011;37243;49.814;8.652;2022-10-31T02:21:37;2.55;;;2.35;;
51179;SDS011;37243;49.814;8.652;2022-10-31T02:24:17;2.67;;;2.47;;
51179;SDS011;37243;49.814;8.652;2022-10-31T02:27:10;2.47;;;2.28;;
51179;SDS011;37243;49.814;8.652;2022-10-31T02:29:54;2.25;;;2.15;;
51179;SDS011;37243;49.814;8.652;2022-10-31T02:32:37;2.88;;;2.30;;
51179;SDS011;37243;49.814;8.652;2022-10-31T02:35:13;2.63;;;2.42;;
51179;SDS011;37243;49.814;8.652;2022-10-31T02:37:54;2.50;;;2.30;;
51179;SDS011;37243;49.814;8.652;2022-10-31T02:40:30;3.35;;;2.13;;
51179;SDS011;37243;49.814;8.652;2022-10-31T02:43:05;2.60;;;2.40;;
51179;SDS011;37243;49.814;8.652;2022-10-31T02:45:41;2.45;;;2.35;;
51179;SDS011;37243;49.814;8.652;2022-10-31T02:48:20;2.13;;;2.03;;
51179;SDS011;37243;49.814;8.652;2022-10-31T02:50:54;2.22;;;2.03;;
51179;SDS011;37243;49.814;8.652;2022-10-31T02:53:24;2.42;;;2.22;;
51179;SDS011;37243;49.814;8.652;2022-10-31T02:55:57;2.20;;;2.00;;
51179;SDS011;37243;49.814;8.652;2022-10-31T02:58:28;2.50;;;2.30;;
51179;SDS011;37243;49.814;8.652;2022-10-31T03:01:03;2.17;;;2.08;;
51179;SDS011;37243;49.814;8.652;2022-10-31T03:03:51;2.08;;;1.98;;
51179;SDS011;37243;49.814;8.652;2022-10-31T03:06:30;2.40;;;2.20;;
51179;SDS011;37243;49.814;8.652;2022-10-31T03:09:04;2.40;;;2.20;;
51179;SDS011;37243;49.814;8.652;2022-10-31T03:11:42;2.30;;;2.10;;
51179;SDS011;37243;49.814;8.652;2022-10-31T03:14:16;2.10;;;2.00;;
51179;SDS011;37243;49.814;8.652;2022-10-31T03:16:49;2.65;;;1.88;;
51179;SDS011;37243;49.814;8.652;2022-10-31T03:19:23;2.30;;;2.20;;
51179;SDS011;37243;49.814;8.652;2022-10-31T03:21:57;1.73;;;1.63;;
51179;SDS011;37243;49.814;8.652;2022-10-31T03:24:30;2.35;;;2.22;;
51179;SDS011;37243;49.814;8.652;2022-10-31T03:27:02;2.08;;;1.98;;
51179;SDS011;37243;49.814;8.652;2022-10-31T03:29:34;2.17;;;1.98;;
51179;SDS011;37243;49.814;8.652;2022-10-31T03:32:06;2.55;;;2.35;;
51179;SDS011;37243;49.814;8.652;2022-10-31T03:34:40;3.28;;;2.03;;
51179;SDS011;37243;49.814;8.652;2022-10-31T03:37:11;2.17;;;2.08;;
51179;SDS011;37243;49.814;8.652;2022-10-31T03:39:43;2.20;;;2.00;;
51179;SDS011;37243;49.814;8.652;2022-10-31T03:42:15;2.53;;;2.33;;
51179;SDS011;37243;49.814;8.652;2022-10-31T03:44:47;2.22;;;2.03;;
51179;SDS011;37243;49.814;8.652;2022-10-31T03:47:22;2.45;;;2.25;;
51179;SDS011;37243;49.814;8.652;2022-10-31T03:49:53;2.33;;;2.22;;
51179;SDS011;37243;49.814;8.652;2022-10-31T03:52:23;2.50;;;2.30;;
51179;SDS011;37243;49.814;8.652;2022-10-31T03:54:57;2.50;;;2.25;;
51179;SDS011;37243;49.814;8.652;2022-10-31T03:57:32;2.08;;;1.90;;
51179;SDS011;37243;49.814;8.652;2022-10-31T04:00:04;2.13;;;2.03;;
51179;SDS011;37243;49.814;8.652;2022-10-31T04:02:37;1.73;;;1.63;;
51179;SDS011;37243;49.814;8.652;2022-10-31T04:05:11;2.25;;;2.08;;
51179;SDS011;37243;49.814;8.652;2022-10-31T04:07:43;2.97;;;2.03;;
51179;SDS011;37243;49.814;8.652;2022-10-31T04:10:14;1.90;;;1.80;;
51179;SDS011;37243;49.814;8.652;2022-10-31T04:12:47;2.20;;;2.08;;
51179;SDS011;37243;49.814;8.652;2022-10-31T04:15:17;2.08;;;1.98;;
51179;SDS011;37243;49.814;8.652;2022-10-31T04:17:47;2.50;;;2.30;;
51179;SDS011;37243;49.814;8.652;2022-10-31T04:20:31;2.03;;;1.92;;
51179;SDS011;37243;49.814;8.652;2022-10-31T04:23:00;2.10;;;2.00;;
51179;SDS011;37243;49.814;8.652;2022-10-31T04:25:29;2.08;;;1.98;;
51179;SDS011;37243;49.814;8.652;2022-10-31T04:27:58;1.77;;;1.67;;
51179;SDS011;37243;49.814;8.652;2022-10-31T04:30:26;2.00;;;1.90;;
51179;SDS011;37243;49.814;8.652;2022-10-31T04:32:54;2.13;;;1.92;;
51179;SDS011;37243;49.814;8.652;2022-10-31T04:35:23;2.10;;;1.90;;
51179;SDS011;37243;49.814;8.652;2022-10-31T04:37:53;2.28;;;2.03;;
51179;SDS011;37243;49.814;8.652;2022-10-31T04:40:22;2.05;;;1.95;;
51179;SDS011;37243;49.814;8.652;2022-10-31T04:42:50;2.63;;;2.03;;
51179;SDS011;37243;49.814;8.652;2022-10-31T04:45:18;2.05;;;1.95;;
51179;SDS011;37243;49.814;8.652;2022-10-31T04:47:46;2.10;;;2.00;;
51179;SDS011;37243;49.814;8.652;2022-10-31T04:50:15;2.10;;;1.90;;
51179;SDS011;37243;49.814;8.652;2022-10-31T04:52:44;1.88;;;1.77;;
51179;SDS011;37243;49.814;8.652;2022-10-31T04:55:16;1.90;;;1.80;;
51179;SDS011;37243;49.814;8.652;2022-10-31T04:57:45;2.08;;;1.98;;
51179;SDS011;37243;49.814;8.652;2022-10-31T05:00:15;1.90;;;1.80;;
51179;SDS011;37243;49.814;8.652;2022-10-31T05:02:46;1.77;;;1.67;;
51179;SDS011;37243;49.814;8.652;2022-10-31T05:05:15;2.08;;;1.98;;
51179;SDS011;37243;49.814;8.652;2022-10-31T05:07:45;1.95;;;1.85;;
51179;SDS011;37243;49.814;8.652;2022-10-31T05:10:17;1.88;;;1.77;;
51179;SDS011;37243;49.814;8.652;2022-10-31T05:12:47;2.08;;;1.98;;
51179;SDS011;37243;49.814;8.652;2022-10-31T05:15:17;2.15;;;1.73;;
51179;SDS011;37243;49.814;8.652;2022-10-31T05:17:46;2.00;;;1.90;;
51179;SDS011;37243;49.814;8.652;2022-10-31T05:20:15;2.15;;;2.05;;
51179;SDS011;37243;49.814;8.652;2022-10-31T05:22:46;1.83;;;1.73;;
51179;SDS011;37243;49.814;8.652;2022-10-31T05:25:18;2.20;;;2.00;;
51179;SDS011;37243;49.814;8.652;2022-10-31T05:27:48;1.90;;;1.70;;
51179;SDS011;37243;49.814;8.652;2022-10-31T05:30:18;1.95;;;1.85;;
51179;SDS011;37243;49.814;8.652;2022-10-31T05:32:48;2.25;;;2.05;;
51179;SDS011;37243;49.814;8.652;2022-10-31T05:35:19;1.70;;;1.60;;
51179;SDS011;37243;49.814;8.652;2022-10-31T05:37:48;1.95;;;1.80;;
51179;SDS011;37243;49.814;8.652;2022-10-31T05:40:19;1.98;;;1.88;;
51179;SDS011;37243;49.814;8.652;2022-10-31T05:42:50;1.80;;;1.70;;
51179;SDS011;37243;49.814;8.652;2022-10-31T05:45:19;2.05;;;1.90;;
51179;SDS011;37243;49.814;8.652;2022-10-31T05:47:52;2.00;;;1.90;;
51179;SDS011;37243;49.814;8.652;2022-10-31T05:50:21;1.83;;;1.70;;
51179;SDS011;37243;49.814;8.652;2022-10-31T05:52:54;2.33;;;2.13;;
51179;SDS011;37243;49.814;8.652;2022-10-31T05:55:25;2.38;;;1.90;;
51179;SDS011;37243;49.814;8.652;2022-10-31T05:57:54;2.85;;;1.60;;
51179;SDS011;37243;49.814;8.652;2022-10-31T06:00:23;1.88;;;1.70;;
51179;SDS011;37243;49.814;8.652;2022-10-31T06:02:57;3.47;;;2.00;;
51179;SDS011;37243;49.814;8.652;2022-10-31T06:05:26;2.72;;;2.28;;
51179;SDS011;37243;49.814;8.652;2022-10-31T06:07:55;3.50;;;2.10;;
51179;SDS011;37243;49.814;8.652;2022-10-31T06:10:26;3.60;;;2.17;;
51179;SDS011;37243;49.814;8.652;2022-10-31T06:12:55;4.82;;;2.38;;
51179;SDS011;37243;49.814;8.652;2022-10-31T06:15:23;4.05;;;2.58;;
51179;SDS011;37243;49.814;8.652;2022-10-31T06:17:57;5.75;;;2.85;;
51179;SDS011;37243;49.814;8.652;2022-10-31T06:20:26;3.60;;;2.30;;
51179;SDS011;37243;49.814;8.652;2022-10-31T06:22:55;6.28;;;2.10;;
51179;SDS011;37243;49.814;8.652;2022-10-31T06:25:26;3.92;;;2.50;;
51179;SDS011;37243;49.814;8.652;2022-10-31T06:27:54;1.92;;;1.83;;
51179;SDS011;37243;49.814;8.652;2022-10-31T06:30:23;3.30;;;2.47;;
51179;SDS011;37243;49.814;8.652;2022-10-31T06:32:51;6.95;;;2.72;;
51179;SDS011;37243;49.814;8.652;2022-10-31T06:35:19;4.45;;;2.40;;
51179;SDS011;37243;49.814;8.652;2022-10-31T06:37:51;9.23;;;2.85;;
51179;SDS011;37243;49.814;8.652;2022-10-31T06:40:19;4.82;;;2.60;;
51179;SDS011;37243;49.814;8.652;2022-10-31T06:42:57;9.48;;;2.88;;
51179;SDS011;37243;49.814;8.652;2022-10-31T06:45:26;10.82;;;2.35;;
51179;SDS011;37243;49.814;8.652;2022-10-31T06:47:55;6.70;;;2.55;;
51179;SDS011;37243;49.814;8.652;2022-10-31T06:50:24;8.77;;;2.97;;
51179;SDS011;37243;49.814;8.652;2022-10-31T06:52:53;9.35;;;2.70;;
51179;SDS011;37243;49.814;8.652;2022-10-31T06:55:22;5.15;;;2.70;;
51179;SDS011;37243;49.814;8.652;2022-10-31T06:57:52;6.65;;;2.47;;
51179;SDS011;37243;49.814;8.652;2022-10-31T07:00:25;3.83;;;2.67;;
51179;SDS011;37243;49.814;8.652;2022-10-31T07:02:55;4.57;;;2.40;;
51179;SDS011;37243;49.814;8.652;2022-10-31T07:05:24;5.88;;;2.50;;
51179;SDS011;37243;49.814;8.652;2022-10-31T07:07:53;4.38;;;2.70;;
51179;SDS011;37243;49.814;8.652;2022-10-31T07:10:22;4.03;;;2.50;;
51179;SDS011;37243;49.814;8.652;2022-10-31T07:12:53;4.60;;;2.40;;
51179;SDS011;37243;49.814;8.652;2022-10-31T07:15:25;5.13;;;2.55;;
51179;SDS011;37243;49.814;8.652;2022-10-31T07:17:58;4.13;;;2.53;;
51179;SDS011;37243;49.814;8.652;2022-10-31T07:20:28;4.65;;;2.67;;
51179;SDS011;37243;49.814;8.652;2022-10-31T07:22:56;6.20;;;3.00;;
51179;SDS011;37243;49.814;8.652;2022-10-31T07:25:25;4.82;;;2.45;;
51179;SDS011;37243;49.814;8.652;2022-10-31T07:27:53;9.68;;;2.72;;
51179;SDS011;37243;49.814;8.652;2022-10-31T07:30:25;4.57;;;2.25;;
51179;SDS011;37243;49.814;8.652;2022-10-31T07:32:53;3.63;;;2.35;;
51179;SDS011;37243;49.814;8.652;2022-10-31T07:35:23;3.17;;;2.28;;
51179;SDS011;37243;49.814;8.652;2022-10-31T07:37:52;2.97;;;2.53;;
51179;SDS011;37243;49.814;8.652;2022-10-31T07:40:21;4.30;;;2.30;;
51179;SDS011;37243;49.814;8.652;2022-10-31T07:42:51;3.55;;;2.25;;
51179;SDS011;37243;49.814;8.652;2022-10-31T07:45:20;5.65;;;2.67;;
51179;SDS011;37243;49.814;8.652;2022-10-31T07:47:51;3.55;;;2.33;;
51179;SDS011;37243;49.814;8.652;2022-10-31T07:50:21;4.82;;;2.40;;
51179;SDS011;37243;49.814;8.652;2022-10-31T07:52:57;3.67;;;2.97;;
51179;SDS011;37243;49.814;8.652;2022-10-31T07:55:27;4.97;;;2.08;;
51179;SDS011;37243;49.814;8.652;2022-10-31T07:57:56;2.95;;;2.70;;
51179;SDS011;37243;49.814;8.652;2022-10-31T08:00:25;8.48;;;2.58;;
51179;SDS011;37243;49.814;8.652;2022-10-31T08:03:01;3.92;;;2.83;;
51179;SDS011;37243;49.814;8.652;2022-10-31T08:05:31;4.22;;;2.38;;
51179;SDS011;37243;49.814;8.652;2022-10-31T08:08:00;3.70;;;2.40;;
51179;SDS011;37243;49.814;8.652;2022-10-31T08:10:29;3.60;;;2.35;;
51179;SDS011;37243;49.814;8.652;2022-10-31T08:12:58;3.50;;;2.70;;
51179;SDS011;37243;49.814;8.652;2022-10-31T08:15:27;3.88;;;2.50;;
51179;SDS011;37243;49.814;8.652;2022-10-31T08:17:56;2.70;;;2.47;;
51179;SDS011;37243;49.814;8.652;2022-10-31T08:20:27;3.80;;;2.10;;
51179;SDS011;37243;49.814;8.652;2022-10-31T08:22:55;2.53;;;2.33;;
51179;SDS011;37243;49.814;8.652;2022-10-31T08:25:24;5.05;;;2.47;;
51179;SDS011;37243;49.814;8.652;2022-10-31T08:27:54;6.07;;;2.67;;
51179;SDS011;37243;49.814;8.652;2022-10-31T08:30:24;5.38;;;2.58;;
51179;SDS011;37243;49.814;8.652;2022-10-31T08:32:57;5.28;;;2.60;;
51179;SDS011;37243;49.814;8.652;2022-10-31T08:35:31;5.68;;;2.60;;
51179;SDS011;37243;49.814;8.652;2022-10-31T08:38:00;2.50;;;2.28;;
51179;SDS011;37243;49.814;8.652;2022-10-31T08:40:30;4.45;;;2.67;;
51179;SDS011;37243;49.814;8.652;2022-10-31T08:43:00;4.55;;;2.50;;
51179;SDS011;37243;49.814;8.652;2022-10-31T08:45:30;3.33;;;2.53;;
51179;SDS011;37243;49.814;8.652;2022-10-31T08:48:00;3.92;;;2.20;;
51179;SDS011;37243;49.814;8.652;2022-10-31T08:50:32;3.72;;;2.15;;
51179;SDS011;37243;49.814;8.652;2022-10-31T08:53:03;3.05;;;2.50;;
51179;SDS011;37243;49.814;8.652;2022-10-31T08:55:34;5.28;;;2.40;;
51179;SDS011;37243;49.814;8.652;2022-10-31T08:58:03;4.97;;;2.20;;
51179;SDS011;37243;49.814;8.652;2022-10-31T09:00:32;2.38;;;2.08;;
51179;SDS011;37243;49.814;8.652;2022-10-31T09:03:02;3.72;;;2.20;;
51179;SDS011;37243;49.814;8.652;2022-10-31T09:05:35;3.03;;;2.20;;
51179;SDS011;37243;49.814;8.652;2022-10-31T09:08:04;4.25;;;1.88;;
51179;SDS011;37243;49.814;8.652;2022-10-31T09:10:34;4.22;;;2.42;;
51179;SDS011;37243;49.814;8.652;2022-10-31T09:13:05;2.83;;;2.60;;
51179;SDS011;37243;49.814;8.652;2022-10-31T09:15:35;4.28;;;2.33;;
51179;SDS011;37243;49.814;8.652;2022-10-31T09:18:05;3.15;;;2.33;;
51179;SDS011;37243;49.814;8.652;2022-10-31T09:20:36;3.10;;;2.53;;
51179;SDS011;37243;49.814;8.652;2022-10-31T09:23:06;3.78;;;2.47;;
51179;SDS011;37243;49.814;8.652;2022-10-31T09:25:37;2.65;;;2.33;;
51179;SDS011;37243;49.814;8.652;2022-10-31T09:28:07;2.42;;;2.22;;
51179;SDS011;37243;49.814;8.652;2022-10-31T09:30:38;3.83;;;2.22;;
51179;SDS011;37243;49.814;8.652;2022-10-31T09:33:08;2.50;;;2.30;;
51179;SDS011;37243;49.814;8.652;2022-10-31T09:35:40;2.35;;;2.13;;
51179;SDS011;37243;49.814;8.652;2022-10-31T09:38:10;2.70;;;2.47;;
51179;SDS011;37243;49.814;8.652;2022-10-31T09:40:40;2.60;;;2.40;;
51179;SDS011;37243;49.814;8.652;2022-10-31T09:43:13;2.38;;;2.17;;
51179;SDS011;37243;49.814;8.652;2022-10-31T09:45:47;2.65;;;2.38;;
51179;SDS011;37243;49.814;8.652;2022-10-31T09:48:28;3.13;;;2.10;;
51179;SDS011;37243;49.814;8.652;2022-10-31T09:51:08;2.35;;;2.15;;
51179;SDS011;37243;49.814;8.652;2022-10-31T09:53:40;2.38;;;2.17;;
51179;SDS011;37243;49.814;8.652;2022-10-31T09:56:13;2.67;;;2.47;;
51179;SDS011;37243;49.814;8.652;2022-10-31T09:58:46;4.45;;;2.30;;
51179;SDS011;37243;49.814;8.652;2022-10-31T10:01:25;2.90;;;2.08;;
51179;SDS011;37243;49.814;8.652;2022-10-31T10:04:03;2.58;;;2.08;;
51179;SDS011;37243;49.814;8.652;2022-10-31T10:06:46;2.60;;;2.40;;
51179;SDS011;37243;49.814;8.652;2022-10-31T10:09:17;3.03;;;2.22;;
51179;SDS011;37243;49.814;8.652;2022-10-31T10:11:50;2.35;;;2.13;;
51179;SDS011;37243;49.814;8.652;2022-10-31T10:14:32;2.50;;;2.30;;
51179;SDS011;37243;49.814;8.652;2022-10-31T10:17:11;2.03;;;1.90;;
51179;SDS011;37243;49.814;8.652;2022-10-31T10:19:53;2.38;;;1.95;;
51179;SDS011;37243;49.814;8.652;2022-10-31T10:22:36;1.95;;;1.80;;
51179;SDS011;37243;49.814;8.652;2022-10-31T10:25:19;2.60;;;2.22;;
51179;SDS011;37243;49.814;8.652;2022-10-31T10:27:52;2.33;;;2.15;;
51179;SDS011;37243;49.814;8.652;2022-10-31T10:30:32;2.33;;;2.13;;
51179;SDS011;37243;49.814;8.652;2022-10-31T10:33:08;2.50;;;2.30;;
51179;SDS011;37243;49.814;8.652;2022-10-31T10:35:40;2.20;;;2.00;;
51179;SDS011;37243;49.814;8.652;2022-10-31T10:38:16;2.38;;;2.25;;
51179;SDS011;37243;49.814;8.652;2022-10-31T10:40:48;2.60;;;2.25;;
51179;SDS011;37243;49.814;8.652;2022-10-31T10:43:19;2.08;;;1.90;;
51179;SDS011;37243;49.814;8.652;2022-10-31T10:45:53;2.70;;;2.50;;
51179;SDS011;37243;49.814;8.652;2022-10-31T10:48:55;2.10;;;2.00;;
51179;SDS011;37243;49.814;8.652;2022-10-31T10:51:30;2.13;;;2.00;;
51179;SDS011;37243;49.814;8.652;2022-10-31T10:54:12;2.70;;;2.08;;
51179;SDS011;37243;49.814;8.652;2022-10-31T10:56:53;4.28;;;2.45;;
51179;SDS011;37243;49.814;8.652;2022-10-31T10:59:28;3.22;;;2.00;;
51179;SDS011;37243;49.814;8.652;2022-10-31T11:01:57;2.22;;;2.13;;
51179;SDS011;37243;49.814;8.652;2022-10-31T11:04:29;2.67;;;2.30;;
51179;SDS011;37243;49.814;8.652;2022-10-31T11:06:59;2.95;;;2.65;;
51179;SDS011;37243;49.814;8.652;2022-10-31T11:09:32;2.80;;;2.58;;
51179;SDS011;37243;49.814;8.652;2022-10-31T11:12:05;3.28;;;2.10;;
51179;SDS011;37243;49.814;8.652;2022-10-31T11:14:36;2.70;;;2.30;;
51179;SDS011;37243;49.814;8.652;2022-10-31T11:17:17;2.38;;;2.08;;
51179;SDS011;37243;49.814;8.652;2022-10-31T11:19:59;2.85;;;2.58;;
51179;SDS011;37243;49.814;8.652;2022-10-31T11:22:28;2.40;;;2.10;;
51179;SDS011;37243;49.814;8.652;2022-10-31T11:24:59;2.20;;;2.08;;
51179;SDS011;37243;49.814;8.652;2022-10-31T11:27:27;2.42;;;2.22;;
51179;SDS011;37243;49.814;8.652;2022-10-31T11:30:03;2.63;;;2.42;;
51179;SDS011;37243;49.814;8.652;2022-10-31T11:32:33;3.75;;;2.65;;
51179;SDS011;37243;49.814;8.652;2022-10-31T11:35:03;2.53;;;2.30;;
51179;SDS011;37243;49.814;8.652;2022-10-31T11:37:42;3.00;;;2.33;;
51179;SDS011;37243;49.814;8.652;2022-10-31T11:40:18;2.38;;;2.22;;
51179;SDS011;37243;49.814;8.652;2022-10-31T11:42:48;2.67;;;2.28;;
51179;SDS011;37243;49.814;8.652;2022-10-31T11:45:29;3.10;;;2.20;;
51179;SDS011;37243;49.814;8.652;2022-10-31T11:48:02;2.45;;;2.00;;
51179;SDS011;37243;49.814;8.652;2022-10-31T11:50:41;2.22;;;2.05;;
51179;SDS011;37243;49.814;8.652;2022-10-31T11:53:16;2.40;;;2.20;;
51179;SDS011;37243;49.814;8.652;2022-10-31T11:55:58;2.70;;;2.50;;
51179;SDS011;37243;49.814;8.652;2022-10-31T11:58:30;2.35;;;2.15;;
51179;SDS011;37243;49.814;8.652;2022-10-31T12:00:58;2.20;;;2.03;;
51179;SDS011;37243;49.814;8.652;2022-10-31T12:03:32;3.20;;;2.17;;
51179;SDS011;37243;49.814;8.652;2022-10-31T12:06:08;3.05;;;2.22;;
51179;SDS011;37243;49.814;8.652;2022-10-31T12:08:41;2.10;;;1.90;;
51179;SDS011;37243;49.814;8.652;2022-10-31T12:11:16;2.63;;;2.10;;
51179;SDS011;37243;49.814;8.652;2022-10-31T12:14:00;2.17;;;2.00;;
51179;SDS011;37243;49.814;8.652;2022-10-31T12:16:42;3.20;;;2.28;;
51179;SDS011;37243;49.814;8.652;2022-10-31T12:19:18;2.83;;;2.63;;
51179;SDS011;37243;49.814;8.652;2022-10-31T12:21:59;2.60;;;2.40;;
51179;SDS011;37243;49.814;8.652;2022-10-31T12:24:41;2.33;;;2.00;;
51179;SDS011;37243;49.814;8.652;2022-10-31T12:27:24;2.15;;;2.05;;
51179;SDS011;37243;49.814;8.652;2022-10-31T12:30:09;2.30;;;2.10;;
51179;SDS011;37243;49.814;8.652;2022-10-31T12:32:52;2.55;;;2.40;;
51179;SDS011;37243;49.814;8.652;2022-10-31T12:35:34;2.63;;;2.42;;
51179;SDS011;37243;49.814;8.652;2022-10-31T12:38:18;2.50;;;2.30;;
51179;SDS011;37243;49.814;8.652;2022-10-31T12:41:05;2.25;;;2.15;;
51179;SDS011;37243;49.814;8.652;2022-10-31T12:43:52;3.05;;;1.85;;
51179;SDS011;37243;49.814;8.652;2022-10-31T12:46:26;2.33;;;2.17;;
51179;SDS011;37243;49.814;8.652;2022-10-31T12:49:17;2.28;;;2.13;;
51179;SDS011;37243;49.814;8.652;2022-10-31T12:52:03;2.13;;;2.03;;
51179;SDS011;37243;49.814;8.652;2022-10-31T12:54:44;2.20;;;2.10;;
51179;SDS011;37243;49.814;8.652;2022-10-31T12:57:22;2.75;;;2.42;;
51179;SDS011;37243;49.814;8.652;2022-10-31T13:00:00;2.33;;;2.22;;
51179;SDS011;37243;49.814;8.652;2022-10-31T13:02:33;2.10;;;2.00;;
51179;SDS011;37243;49.814;8.652;2022-10-31T13:05:13;2.85;;;1.95;;
51179;SDS011;37243;49.814;8.652;2022-10-31T13:07:46;1.98;;;1.88;;
51179;SDS011;37243;49.814;8.652;2022-10-31T13:10:21;2.22;;;2.13;;
51179;SDS011;37243;49.814;8.652;2022-10-31T13:12:54;2.22;;;2.13;;
51179;SDS011;37243;49.814;8.652;2022-10-31T13:15:40;2.45;;;2.25;;
51179;SDS011;37243;49.814;8.652;2022-10-31T13:18:21;2.50;;;2.30;;
51179;SDS011;37243;49.814;8.652;2022-10-31T13:20:54;2.03;;;1.90;;
51179;SDS011;37243;49.814;8.652;2022-10-31T13:23:27;2.53;;;2.33;;
51179;SDS011;37243;49.814;8.652;2022-10-31T13:25:58;2.63;;;2.10;;
51179;SDS011;37243;49.814;8.652;2022-10-31T13:28:35;2.58;;;2.38;;
51179;SDS011;37243;49.814;8.652;2022-10-31T13:31:11;2.17;;;1.95;;
51179;SDS011;37243;49.814;8.652;2022-10-31T13:33:40;2.42;;;2.10;;
51179;SDS011;37243;49.814;8.652;2022-10-31T13:36:15;2.83;;;2.35;;
51179;SDS011;37243;49.814;8.652;2022-10-31T13:38:52;2.45;;;2.10;;
51179;SDS011;37243;49.814;8.652;2022-10-31T13:41:33;2.42;;;2.20;;
51179;SDS011;37243;49.814;8.652;2022-10-31T13:44:11;5.68;;;3.00;;
51179;SDS011;37243;49.814;8.652;2022-10-31T13:46:45;6.13;;;3.10;;
51179;SDS011;37243;49.814;8.652;2022-10-31T13:49:23;7.78;;;3.30;;
51179;SDS011;37243;49.814;8.652;2022-10-31T13:52:04;7.82;;;2.90;;
51179;SDS011;37243;49.814;8.652;2022-10-31T13:54:33;5.57;;;3.25;;
51179;SDS011;37243;49.814;8.652;2022-10-31T13:57:06;3.20;;;2.53;;
51179;SDS011;37243;49.814;8.652;2022-10-31T13:59:36;4.43;;;2.72;;
51179;SDS011;37243;49.814;8.652;2022-10-31T14:02:14;8.23;;;3.50;;
51179;SDS011;37243;49.814;8.652;2022-10-31T14:04:44;3.80;;;3.10;;
51179;SDS011;37243;49.814;8.652;2022-10-31T14:07:17;4.28;;;2.88;;
51179;SDS011;37243;49.814;8.652;2022-10-31T14:09:52;4.82;;;3.42;;
51179;SDS011;37243;49.814;8.652;2022-10-31T14:12:24;9.20;;;3.17;;
51179;SDS011;37243;49.814;8.652;2022-10-31T14:14:57;3.70;;;3.30;;
51179;SDS011;37243;49.814;8.652;2022-10-31T14:17:33;4.00;;;2.85;;
51179;SDS011;37243;49.814;8.652;2022-10-31T14:23:11;2.88;;;2.67;;
51179;SDS011;37243;49.814;8.652;2022-10-31T14:26:05;4.32;;;2.97;;
51179;SDS011;37243;49.814;8.652;2022-10-31T14:28:35;4.80;;;3.00;;
51179;SDS011;37243;49.814;8.652;2022-10-31T14:31:24;6.28;;;3.22;;
51179;SDS011;37243;49.814;8.652;2022-10-31T14:34:15;5.35;;;2.90;;
51179;SDS011;37243;49.814;8.652;2022-10-31T14:36:50;4.57;;;2.97;;
51179;SDS011;37243;49.814;8.652;2022-10-31T14:39:29;3.15;;;2.85;;
51179;SDS011;37243;49.814;8.652;2022-10-31T14:42:06;4.95;;;2.60;;
51179;SDS011;37243;49.814;8.652;2022-10-31T14:44:55;3.08;;;2.67;;
51179;SDS011;37243;49.814;8.652;2022-10-31T14:47:36;3.50;;;2.85;;
51179;SDS011;37243;49.814;8.652;2022-10-31T14:50:23;2.92;;;2.63;;
51179;SDS011;37243;49.814;8.652;2022-10-31T14:53:01;4.68;;;2.70;;
51179;SDS011;37243;49.814;8.652;2022-10-31T14:55:33;3.22;;;2.78;;
51179;SDS011;37243;49.814;8.652;2022-10-31T14:58:02;3.08;;;2.60;;
51179;SDS011;37243;49.814;8.652;2022-10-31T15:00:34;3.75;;;2.88;;
51179;SDS011;37243;49.814;8.652;2022-10-31T15:03:05;5.68;;;2.78;;
51179;SDS011;37243;49.814;8.652;2022-10-31T15:05:49;3.65;;;2.55;;
51179;SDS011;37243;49.814;8.652;2022-10-31T15:08:31;3.55;;;2.67;;
51179;SDS011;37243;49.814;8.652;2022-10-31T15:11:09;4.43;;;2.33;;
51179;SDS011;37243;49.814;8.652;2022-10-31T15:13:45;3.17;;;2.53;;
51179;SDS011;37243;49.814;8.652;2022-10-31T15:16:15;4.45;;;2.70;;
51179;SDS011;37243;49.814;8.652;2022-10-31T15:18:48;3.08;;;2.78;;
51179;SDS011;37243;49.814;8.652;2022-10-31T15:21:25;3.75;;;2.90;;
51179;SDS011;37243;49.814;8.652;2022-10-31T15:23:56;2.78;;;2.47;;
51179;SDS011;37243;49.814;8.652;2022-10-31T15:26:27;5.43;;;2.60;;